sensor_id;sensor_type;location;lat;lon;timestamp;pressure;altitude;pressure_sealevel;temperature;humidity
24746;BME280;12845;52.042;6.838;2023-07-28T00:01:33;-18601.16;;;21.36;100.00
24746;BME280;12845;52.042;6.838;2023-07-28T00:03:59;-18603.59;;;21.46;100.00
24746;BME280;12845;52.042;6.838;2023-07-28T00:06:24;-18607.28;;;21.59;100.00
24746;BME280;12845;52.042;6.838;2023-07-28T00:11:15;-18608.22;;;21.63;100.00
24746;BME280;12845;52.042;6.838;2023-07-28T00:13:42;-18610.13;;;21.70;100.00
24746;BME280;12845;52.042;6.838;2023-07-28T00:16:08;-18605.22;;;21.52;100.00
24746;BME280;12845;52.042;6.838;2023-07-28T00:18:34;-18608.50;;;21.64;100.00
24746;BME280;12845;52.042;6.838;2023-07-28T00:20:59;-18610.13;;;21.70;100.00
24746;BME280;12845;52.042;6.838;2023-07-28T00:23:25;-18608.50;;;21.64;100.00
24746;BME280;12845;52.042;6.838;2023-07-28T00:25:51;-18606.88;;;21.58;100.00
24746;BME280;12845;52.042;6.838;2023-07-28T00:28:16;-18610.66;;;21.72;100.00
24746;BME280;12845;52.042;6.838;2023-07-28T00:30:42;-18607.28;;;21.59;100.00
24746;BME280;12845;52.042;6.838;2023-07-28T00:33:07;-18605.09;;;21.51;100.00
24746;BME280;12845;52.042;6.838;2023-07-28T00:35:32;-18602.91;;;21.43;100.00
24746;BME280;12845;52.042;6.838;2023-07-28T00:37:58;-18601.16;;;21.36;100.00
24746;BME280;12845;52.042;6.838;2023-07-28T00:40:23;-18598.69;;;21.27;100.00
24746;BME280;12845;52.042;6.838;2023-07-28T00:42:49;-18598.84;;;21.28;100.00
24746;BME280;12845;52.042;6.838;2023-07-28T00:45:15;-18604.28;;;21.48;100.00
24746;BME280;12845;52.042;6.838;2023-07-28T00:47:40;-18606.44;;;21.56;100.00
24746;BME280;12845;52.042;6.838;2023-07-28T00:50:08;-18608.22;;;21.63;100.00
24746;BME280;12845;52.042;6.838;2023-07-28T00:52:34;-18606.31;;;21.56;100.00
24746;BME280;12845;52.042;6.838;2023-07-28T00:55:00;-18603.06;;;21.44;100.00
24746;BME280;12845;52.042;6.838;2023-07-28T00:57:25;-18604.16;;;21.48;100.00
24746;BME280;12845;52.042;6.838;2023-07-28T00:59:51;-18605.22;;;21.52;100.00
24746;BME280;12845;52.042;6.838;2023-07-28T01:02:17;-18605.09;;;21.51;100.00
24746;BME280;12845;52.042;6.838;2023-07-28T01:04:43;-18610.13;;;21.70;100.00
24746;BME280;12845;52.042;6.838;2023-07-28T01:07:20;-18609.56;;;21.68;100.00
24746;BME280;12845;52.042;6.838;2023-07-28T01:10:05;-18609.56;;;21.68;100.00
24746;BME280;12845;52.042;6.838;2023-07-28T01:12:32;-18610.13;;;21.70;100.00
24746;BME280;12845;52.042;6.838;2023-07-28T01:14:57;-18607.81;;;21.61;100.00
24746;BME280;12845;52.042;6.838;2023-07-28T01:17:25;-18609.84;;;21.69;100.00
24746;BME280;12845;52.042;6.838;2023-07-28T01:19:54;-18610.25;;;21.71;100.00
24746;BME280;12845;52.042;6.838;2023-07-28T01:25:24;-18611.34;;;21.75;100.00
24746;BME280;12845;52.042;6.838;2023-07-28T01:27:53;-18609.84;;;21.69;100.00
24746;BME280;12845;52.042;6.838;2023-07-28T01:30:20;-18611.63;;;21.76;100.00
24746;BME280;12845;52.042;6.838;2023-07-28T01:32:47;-18612.69;;;21.80;100.00
24746;BME280;12845;52.042;6.838;2023-07-28T01:35:12;-18614.59;;;21.87;100.00
24746;BME280;12845;52.042;6.838;2023-07-28T01:37:38;-18609.44;;;21.68;100.00
24746;BME280;12845;52.042;6.838;2023-07-28T01:40:04;-18607.53;;;21.60;100.00
24746;BME280;12845;52.042;6.838;2023-07-28T01:42:29;-18606.44;;;21.56;100.00
24746;BME280;12845;52.042;6.838;2023-07-28T01:44:54;-18607.53;;;21.60;100.00
24746;BME280;12845;52.042;6.838;2023-07-28T01:47:20;-18607.69;;;21.61;100.00
24746;BME280;12845;52.042;6.838;2023-07-28T01:49:45;-18607.94;;;21.62;100.00
24746;BME280;12845;52.042;6.838;2023-07-28T01:52:11;-18610.13;;;21.70;100.00
24746;BME280;12845;52.042;6.838;2023-07-28T01:54:36;-18611.22;;;21.74;100.00
24746;BME280;12845;52.042;6.838;2023-07-28T01:57:01;-18610.13;;;21.70;100.00
24746;BME280;12845;52.042;6.838;2023-07-28T01:59:26;-18610.13;;;21.70;100.00
24746;BME280;12845;52.042;6.838;2023-07-28T02:01:52;-18607.94;;;21.62;100.00
24746;BME280;12845;52.042;6.838;2023-07-28T02:04:17;-18607.69;;;21.61;100.00
24746;BME280;12845;52.042;6.838;2023-07-28T02:06:43;-18605.91;;;21.54;100.00
24746;BME280;12845;52.042;6.838;2023-07-28T02:09:08;-18603.06;;;21.44;100.00
24746;BME280;12845;52.042;6.838;2023-07-28T02:11:33;-18603.59;;;21.46;100.00
24746;BME280;12845;52.042;6.838;2023-07-28T02:13:59;-18602.66;;;21.42;100.00
24746;BME280;12845;52.042;6.838;2023-07-28T02:16:24;-18604.00;;;21.47;100.00
24746;BME280;12845;52.042;6.838;2023-07-28T02:18:53;-18601.16;;;21.36;100.00
24746;BME280;12845;52.042;6.838;2023-07-28T02:21:18;-18603.06;;;21.44;100.00
24746;BME280;12845;52.042;6.838;2023-07-28T02:23:44;-18603.88;;;21.47;100.00
24746;BME280;12845;52.042;6.838;2023-07-28T02:26:09;-18607.41;;;21.60;100.00
24746;BME280;12845;52.042;6.838;2023-07-28T02:28:34;-18611.22;;;21.74;100.00
24746;BME280;12845;52.042;6.838;2023-07-28T02:31:00;-18613.38;;;21.82;100.00
24746;BME280;12845;52.042;6.838;2023-07-28T02:33:27;-18610.25;;;21.71;100.00
24746;BME280;12845;52.042;6.838;2023-07-28T02:35:55;-18608.34;;;21.63;100.00
24746;BME280;12845;52.042;6.838;2023-07-28T02:38:20;-18606.19;;;21.55;100.00
24746;BME280;12845;52.042;6.838;2023-07-28T02:40:46;-18606.44;;;21.56;100.00
24746;BME280;12845;52.042;6.838;2023-07-28T02:43:11;-18607.00;;;21.58;100.00
24746;BME280;12845;52.042;6.838;2023-07-28T02:45:36;-18606.59;;;21.57;100.00
24746;BME280;12845;52.042;6.838;2023-07-28T02:48:02;-18608.50;;;21.64;100.00
24746;BME280;12845;52.042;6.838;2023-07-28T02:50:27;-18606.03;;;21.55;100.00
24746;BME280;12845;52.042;6.838;2023-07-28T02:52:53;-18606.88;;;21.58;100.00
24746;BME280;12845;52.042;6.838;2023-07-28T02:55:18;-18604.16;;;21.48;100.00
24746;BME280;12845;52.042;6.838;2023-07-28T02:57:43;-18604.97;;;21.51;100.00
24746;BME280;12845;52.042;6.838;2023-07-28T03:00:09;-18606.03;;;21.55;100.00
24746;BME280;12845;52.042;6.838;2023-07-28T03:02:35;-18604.41;;;21.49;100.00
24746;BME280;12845;52.042;6.838;2023-07-28T03:05:01;-18607.81;;;21.61;100.00
24746;BME280;12845;52.042;6.838;2023-07-28T03:07:29;-18610.13;;;21.70;100.00
24746;BME280;12845;52.042;6.838;2023-07-28T03:09:55;-18610.00;;;21.70;100.00
24746;BME280;12845;52.042;6.838;2023-07-28T03:12:21;-18610.94;;;21.73;100.00
24746;BME280;12845;52.042;6.838;2023-07-28T03:14:46;-18608.22;;;21.63;100.00
24746;BME280;12845;52.042;6.838;2023-07-28T03:17:11;-18606.59;;;21.57;100.00
24746;BME280;12845;52.042;6.838;2023-07-28T03:19:37;-18603.19;;;21.44;100.00
24746;BME280;12845;52.042;6.838;2023-07-28T03:22:02;-18608.50;;;21.64;100.00
24746;BME280;12845;52.042;6.838;2023-07-28T03:24:27;-18608.75;;;21.65;100.00
24746;BME280;12845;52.042;6.838;2023-07-28T03:26:53;-18610.41;;;21.71;100.00
24746;BME280;12845;52.042;6.838;2023-07-28T03:29:18;-18608.63;;;21.65;100.00
24746;BME280;12845;52.042;6.838;2023-07-28T03:31:44;-18613.38;;;21.82;100.00
24746;BME280;12845;52.042;6.838;2023-07-28T03:34:09;-18608.50;;;21.64;100.00
24746;BME280;12845;52.042;6.838;2023-07-28T03:36:35;-18606.88;;;21.58;100.00
24746;BME280;12845;52.042;6.838;2023-07-28T03:39:00;-18605.09;;;21.51;100.00
24746;BME280;12845;52.042;6.838;2023-07-28T03:41:26;-18604.56;;;21.49;100.00
24746;BME280;12845;52.042;6.838;2023-07-28T03:43:51;-18602.38;;;21.41;100.00
24746;BME280;12845;52.042;6.838;2023-07-28T03:46:16;-18603.59;;;21.46;100.00
24746;BME280;12845;52.042;6.838;2023-07-28T03:48:42;-18601.41;;;21.37;100.00
24746;BME280;12845;52.042;6.838;2023-07-28T03:51:07;-18606.03;;;21.55;100.00
24746;BME280;12845;52.042;6.838;2023-07-28T03:53:32;-18606.59;;;21.57;100.00
24746;BME280;12845;52.042;6.838;2023-07-28T03:56:00;-18605.22;;;21.52;100.00
24746;BME280;12845;52.042;6.838;2023-07-28T03:58:25;-18599.66;;;21.31;100.00
24746;BME280;12845;52.042;6.838;2023-07-28T04:00:52;-18603.47;;;21.45;100.00
24746;BME280;12845;52.042;6.838;2023-07-28T04:03:18;-18603.47;;;21.45;100.00
24746;BME280;12845;52.042;6.838;2023-07-28T04:05:43;-18599.78;;;21.31;100.00
24746;BME280;12845;52.042;6.838;2023-07-28T04:08:09;-18597.63;;;21.23;100.00
24746;BME280;12845;52.042;6.838;2023-07-28T04:10:34;-18600.34;;;21.33;100.00
24746;BME280;12845;52.042;6.838;2023-07-28T04:12:59;-18597.47;;;21.23;100.00
24746;BME280;12845;52.042;6.838;2023-07-28T04:15:25;-18602.50;;;21.42;100.00
24746;BME280;12845;52.042;6.838;2023-07-28T04:17:50;-18600.47;;;21.34;100.00
24746;BME280;12845;52.042;6.838;2023-07-28T04:20:16;-18599.09;;;21.29;100.00
24746;BME280;12845;52.042;6.838;2023-07-28T04:22:41;-18602.50;;;21.42;100.00
24746;BME280;12845;52.042;6.838;2023-07-28T04:25:06;-18600.47;;;21.34;100.00
24746;BME280;12845;52.042;6.838;2023-07-28T04:27:32;-18594.34;;;21.11;100.00
24746;BME280;12845;52.042;6.838;2023-07-28T04:29:57;-18597.75;;;21.24;100.00
24746;BME280;12845;52.042;6.838;2023-07-28T04:32:23;-18600.34;;;21.33;100.00
24746;BME280;12845;52.042;6.838;2023-07-28T04:34:49;-18600.88;;;21.35;100.00
24746;BME280;12845;52.042;6.838;2023-07-28T04:37:15;-18598.69;;;21.27;100.00
24746;BME280;12845;52.042;6.838;2023-07-28T04:39:41;-18601.16;;;21.36;100.00
24746;BME280;12845;52.042;6.838;2023-07-28T04:42:06;-18599.25;;;21.29;100.00
24746;BME280;12845;52.042;6.838;2023-07-28T04:44:31;-18600.88;;;21.35;100.00
24746;BME280;12845;52.042;6.838;2023-07-28T04:46:57;-18597.06;;;21.21;100.00
24746;BME280;12845;52.042;6.838;2023-07-28T04:49:22;-18598.28;;;21.26;100.00
24746;BME280;12845;52.042;6.838;2023-07-28T04:51:47;-18597.88;;;21.24;100.00
24746;BME280;12845;52.042;6.838;2023-07-28T04:54:13;-18597.06;;;21.21;100.00
24746;BME280;12845;52.042;6.838;2023-07-28T04:56:38;-18598.69;;;21.27;100.00
24746;BME280;12845;52.042;6.838;2023-07-28T04:59:03;-18598.16;;;21.25;100.00
24746;BME280;12845;52.042;6.838;2023-07-28T05:01:29;-18597.06;;;21.21;100.00
24746;BME280;12845;52.042;6.838;2023-07-28T05:03:54;-18597.47;;;21.23;100.00
24746;BME280;12845;52.042;6.838;2023-07-28T05:06:20;-18593.25;;;21.07;100.00
24746;BME280;12845;52.042;6.838;2023-07-28T05:08:45;-18594.63;;;21.12;100.00
24746;BME280;12845;52.042;6.838;2023-07-28T05:11:11;-18590.00;;;20.94;100.00
24746;BME280;12845;52.042;6.838;2023-07-28T05:13:36;-18596.53;;;21.19;100.00
24746;BME280;12845;52.042;6.838;2023-07-28T05:16:01;-18590.69;;;20.97;100.00
24746;BME280;12845;52.042;6.838;2023-07-28T05:18:26;-18594.34;;;21.11;100.00
24746;BME280;12845;52.042;6.838;2023-07-28T05:20:52;-18596.13;;;21.17;100.00
24746;BME280;12845;52.042;6.838;2023-07-28T05:23:17;-18595.31;;;21.14;100.00
24746;BME280;12845;52.042;6.838;2023-07-28T05:25:42;-18598.44;;;21.26;100.00
24746;BME280;12845;52.042;6.838;2023-07-28T05:28:08;-18600.34;;;21.33;100.00
24746;BME280;12845;52.042;6.838;2023-07-28T05:30:33;-18601.28;;;21.37;100.00
24746;BME280;12845;52.042;6.838;2023-07-28T05:32:58;-18597.75;;;21.24;100.00
24746;BME280;12845;52.042;6.838;2023-07-28T05:35:24;-18599.53;;;21.30;100.00
24746;BME280;12845;52.042;6.838;2023-07-28T05:37:49;-18595.16;;;21.14;100.00
24746;BME280;12845;52.042;6.838;2023-07-28T05:40:14;-18595.16;;;21.14;100.00
24746;BME280;12845;52.042;6.838;2023-07-28T05:42:40;-18596.53;;;21.19;100.00
24746;BME280;12845;52.042;6.838;2023-07-28T05:45:06;-18590.13;;;20.95;100.00
24746;BME280;12845;52.042;6.838;2023-07-28T05:47:31;-18588.63;;;20.89;100.00
24746;BME280;12845;52.042;6.838;2023-07-28T05:49:56;-18595.16;;;21.14;100.00
24746;BME280;12845;52.042;6.838;2023-07-28T05:52:22;-18598.84;;;21.28;100.00
24746;BME280;12845;52.042;6.838;2023-07-28T05:54:48;-18601.28;;;21.37;100.00
24746;BME280;12845;52.042;6.838;2023-07-28T05:57:13;-18598.69;;;21.27;100.00
24746;BME280;12845;52.042;6.838;2023-07-28T05:59:39;-18591.22;;;20.99;100.00
24746;BME280;12845;52.042;6.838;2023-07-28T06:02:04;-18593.41;;;21.07;100.00
24746;BME280;12845;52.042;6.838;2023-07-28T06:04:29;-18599.25;;;21.29;100.00
24746;BME280;12845;52.042;6.838;2023-07-28T06:06:55;-18595.56;;;21.15;100.00
24746;BME280;12845;52.042;6.838;2023-07-28T06:09:20;-18596.25;;;21.18;100.00
24746;BME280;12845;52.042;6.838;2023-07-28T06:11:45;-18605.50;;;21.53;100.00
24746;BME280;12845;52.042;6.838;2023-07-28T06:14:14;-18605.63;;;21.53;100.00
24746;BME280;12845;52.042;6.838;2023-07-28T06:16:42;-18603.06;;;21.44;100.00
24746;BME280;12845;52.042;6.838;2023-07-28T06:19:07;-18604.69;;;21.50;100.00
24746;BME280;12845;52.042;6.838;2023-07-28T06:21:33;-18608.91;;;21.66;100.00
24746;BME280;12845;52.042;6.838;2023-07-28T06:23:59;-18610.41;;;21.71;100.00
24746;BME280;12845;52.042;6.838;2023-07-28T06:26:24;-18610.53;;;21.72;100.00
24746;BME280;12845;52.042;6.838;2023-07-28T06:28:49;-18615.28;;;21.90;100.00
24746;BME280;12845;52.042;6.838;2023-07-28T06:31:15;-18609.84;;;21.69;100.00
24746;BME280;12845;52.042;6.838;2023-07-28T06:33:41;-18607.41;;;21.60;100.00
24746;BME280;12845;52.042;6.838;2023-07-28T06:36:06;-18608.91;;;21.66;100.00
24746;BME280;12845;52.042;6.838;2023-07-28T06:38:32;-18607.13;;;21.59;100.00
24746;BME280;12845;52.042;6.838;2023-07-28T06:40:57;-18607.00;;;21.58;100.00
24746;BME280;12845;52.042;6.838;2023-07-28T06:43:23;-18613.78;;;21.84;100.00
24746;BME280;12845;52.042;6.838;2023-07-28T06:45:51;-18609.03;;;21.66;100.00
24746;BME280;12845;52.042;6.838;2023-07-28T06:48:17;-18614.06;;;21.85;100.00
24746;BME280;12845;52.042;6.838;2023-07-28T06:50:42;-18612.44;;;21.79;100.00
24746;BME280;12845;52.042;6.838;2023-07-28T06:53:08;-18613.38;;;21.82;100.00
24746;BME280;12845;52.042;6.838;2023-07-28T06:55:33;-18614.88;;;21.88;100.00
24746;BME280;12845;52.042;6.838;2023-07-28T06:57:58;-18620.72;;;22.10;100.00
24746;BME280;12845;52.042;6.838;2023-07-28T07:00:24;-18617.72;;;21.99;100.00
24746;BME280;12845;52.042;6.838;2023-07-28T07:02:49;-18616.38;;;21.94;100.00
24746;BME280;12845;52.042;6.838;2023-07-28T07:05:15;-18617.19;;;21.97;100.00
24746;BME280;12845;52.042;6.838;2023-07-28T07:07:40;-18617.19;;;21.97;100.00
24746;BME280;12845;52.042;6.838;2023-07-28T07:10:06;-18611.75;;;21.76;100.00
24746;BME280;12845;52.042;6.838;2023-07-28T07:12:32;-18609.31;;;21.67;100.00
24746;BME280;12845;52.042;6.838;2023-07-28T07:14:57;-18608.50;;;21.64;100.00
24746;BME280;12845;52.042;6.838;2023-07-28T07:17:22;-18611.47;;;21.75;100.00
24746;BME280;12845;52.042;6.838;2023-07-28T07:19:48;-18611.75;;;21.76;100.00
24746;BME280;12845;52.042;6.838;2023-07-28T07:22:14;-18612.56;;;21.79;100.00
24746;BME280;12845;52.042;6.838;2023-07-28T07:24:39;-18614.47;;;21.86;100.00
24746;BME280;12845;52.042;6.838;2023-07-28T07:27:05;-18615.16;;;21.89;100.00
24746;BME280;12845;52.042;6.838;2023-07-28T07:29:30;-18613.38;;;21.82;100.00
24746;BME280;12845;52.042;6.838;2023-07-28T07:31:55;-18609.56;;;21.68;100.00
24746;BME280;12845;52.042;6.838;2023-07-28T07:34:22;-18611.63;;;21.76;100.00
24746;BME280;12845;52.042;6.838;2023-07-28T07:36:48;-18614.34;;;21.86;100.00
24746;BME280;12845;52.042;6.838;2023-07-28T07:39:13;-18610.41;;;21.71;100.00
24746;BME280;12845;52.042;6.838;2023-07-28T07:41:39;-18613.38;;;21.82;100.00
24746;BME280;12845;52.042;6.838;2023-07-28T07:44:04;-18610.25;;;21.71;100.00
24746;BME280;12845;52.042;6.838;2023-07-28T07:46:30;-18613.13;;;21.81;100.00
24746;BME280;12845;52.042;6.838;2023-07-28T07:48:55;-18609.44;;;21.68;100.00
24746;BME280;12845;52.042;6.838;2023-07-28T07:51:20;-18613.25;;;21.82;100.00
24746;BME280;12845;52.042;6.838;2023-07-28T07:53:46;-18614.06;;;21.85;100.00
24746;BME280;12845;52.042;6.838;2023-07-28T07:56:11;-18616.09;;;21.93;100.00
24746;BME280;12845;52.042;6.838;2023-07-28T07:58:37;-18614.75;;;21.88;100.00
24746;BME280;12845;52.042;6.838;2023-07-28T08:01:03;-18610.94;;;21.73;100.00
24746;BME280;12845;52.042;6.838;2023-07-28T08:03:29;-18612.03;;;21.77;100.00
24746;BME280;12845;52.042;6.838;2023-07-28T08:05:55;-18616.91;;;21.96;100.00
24746;BME280;12845;52.042;6.838;2023-07-28T08:08:21;-18616.78;;;21.95;100.00
24746;BME280;12845;52.042;6.838;2023-07-28T08:10:47;-18615.81;;;21.92;100.00
24746;BME280;12845;52.042;6.838;2023-07-28T08:13:13;-18612.56;;;21.79;100.00
24746;BME280;12845;52.042;6.838;2023-07-28T08:15:39;-18615.44;;;21.90;100.00
24746;BME280;12845;52.042;6.838;2023-07-28T08:18:04;-18618.28;;;22.01;100.00
24746;BME280;12845;52.042;6.838;2023-07-28T08:20:29;-18623.72;;;22.21;100.00
24746;BME280;12845;52.042;6.838;2023-07-28T08:22:55;-18620.19;;;22.08;100.00
24746;BME280;12845;52.042;6.838;2023-07-28T08:25:20;-18622.06;;;22.15;100.00
24746;BME280;12845;52.042;6.838;2023-07-28T08:27:48;-18622.63;;;22.17;100.00
24746;BME280;12845;52.042;6.838;2023-07-28T08:30:13;-18623.16;;;22.19;100.00
24746;BME280;12845;52.042;6.838;2023-07-28T08:32:40;-18618.28;;;22.01;100.00
24746;BME280;12845;52.042;6.838;2023-07-28T08:35:06;-18621.81;;;22.14;100.00
24746;BME280;12845;52.042;6.838;2023-07-28T08:37:33;-18622.63;;;22.17;100.00
24746;BME280;12845;52.042;6.838;2023-07-28T08:39:58;-18621.66;;;22.14;100.00
24746;BME280;12845;52.042;6.838;2023-07-28T08:42:24;-18625.06;;;22.26;100.00
24746;BME280;12845;52.042;6.838;2023-07-28T08:44:49;-18623.16;;;22.19;100.00
24746;BME280;12845;52.042;6.838;2023-07-28T08:47:17;-18625.88;;;22.29;100.00
24746;BME280;12845;52.042;6.838;2023-07-28T08:49:43;-18627.78;;;22.37;100.00
24746;BME280;12845;52.042;6.838;2023-07-28T08:52:09;-18629.00;;;22.41;100.00
24746;BME280;12845;52.042;6.838;2023-07-28T08:54:34;-18627.66;;;22.36;100.00
24746;BME280;12845;52.042;6.838;2023-07-28T08:57:00;-18630.09;;;22.45;100.00
24746;BME280;12845;52.042;6.838;2023-07-28T08:59:27;-18631.72;;;22.51;100.00
24746;BME280;12845;52.042;6.838;2023-07-28T09:01:54;-18632.94;;;22.56;100.00
24746;BME280;12845;52.042;6.838;2023-07-28T09:04:21;-18628.06;;;22.38;100.00
24746;BME280;12845;52.042;6.838;2023-07-28T09:06:48;-18630.09;;;22.45;100.00
24746;BME280;12845;52.042;6.838;2023-07-28T09:09:17;-18636.47;;;22.69;100.00
24746;BME280;12845;52.042;6.838;2023-07-28T09:11:51;-18637.84;;;22.74;100.00
24746;BME280;12845;52.042;6.838;2023-07-28T09:14:18;-18637.84;;;22.74;100.00
24746;BME280;12845;52.042;6.838;2023-07-28T09:16:44;-18640.56;;;22.85;100.00
24746;BME280;12845;52.042;6.838;2023-07-28T09:19:10;-18642.19;;;22.91;100.00
24746;BME280;12845;52.042;6.838;2023-07-28T09:21:38;-18640.00;;;22.83;100.00
24746;BME280;12845;52.042;6.838;2023-07-28T09:24:06;-18638.91;;;22.79;100.00
24746;BME280;12845;52.042;6.838;2023-07-28T09:26:39;-18644.06;;;22.98;100.00
24746;BME280;12845;52.042;6.838;2023-07-28T09:29:16;-18650.19;;;23.21;100.00
24746;BME280;12845;52.042;6.838;2023-07-28T09:31:43;-18646.66;;;23.08;100.00
24746;BME280;12845;52.042;6.838;2023-07-28T09:34:09;-18648.81;;;23.16;100.00
24746;BME280;12845;52.042;6.838;2023-07-28T09:36:36;-18652.50;;;23.30;100.00
24746;BME280;12845;52.042;6.838;2023-07-28T09:39:04;-18652.22;;;23.29;100.00
24746;BME280;12845;52.042;6.838;2023-07-28T09:41:36;-18652.22;;;23.29;100.00
24746;BME280;12845;52.042;6.838;2023-07-28T09:44:02;-18650.06;;;23.20;100.00
24746;BME280;12845;52.042;6.838;2023-07-28T09:46:29;-18645.16;;;23.02;100.00
24746;BME280;12845;52.042;6.838;2023-07-28T09:48:59;-18644.63;;;23.00;100.00
24746;BME280;12845;52.042;6.838;2023-07-28T09:51:30;-18651.69;;;23.27;100.00
24746;BME280;12845;52.042;6.838;2023-07-28T09:54:12;-18653.31;;;23.33;100.00
24746;BME280;12845;52.042;6.838;2023-07-28T09:56:40;-18647.34;;;23.10;100.00
24746;BME280;12845;52.042;6.838;2023-07-28T09:59:11;-18652.50;;;23.30;100.00
24746;BME280;12845;52.042;6.838;2023-07-28T10:01:39;-18650.59;;;23.23;100.00
24746;BME280;12845;52.042;6.838;2023-07-28T10:04:05;-18651.13;;;23.25;100.00
24746;BME280;12845;52.042;6.838;2023-07-28T10:06:32;-18651.81;;;23.27;100.00
24746;BME280;12845;52.042;6.838;2023-07-28T10:08:59;-18651.81;;;23.27;100.00
24746;BME280;12845;52.042;6.838;2023-07-28T10:11:25;-18652.22;;;23.29;100.00
24746;BME280;12845;52.042;6.838;2023-07-28T10:13:54;-18657.38;;;23.48;100.00
24746;BME280;12845;52.042;6.838;2023-07-28T10:16:20;-18653.31;;;23.33;100.00
24746;BME280;12845;52.042;6.838;2023-07-28T10:18:54;-18649.09;;;23.17;100.00
24746;BME280;12845;52.042;6.838;2023-07-28T10:21:20;-18649.25;;;23.17;100.00
24746;BME280;12845;52.042;6.838;2023-07-28T10:23:54;-18654.13;;;23.36;100.00
24746;BME280;12845;52.042;6.838;2023-07-28T10:26:31;-18651.69;;;23.27;100.00
24746;BME280;12845;52.042;6.838;2023-07-28T10:29:07;-18660.09;;;23.58;100.00
24746;BME280;12845;52.042;6.838;2023-07-28T10:31:33;-18658.59;;;23.53;100.00
24746;BME280;12845;52.042;6.838;2023-07-28T10:33:59;-18653.03;;;23.32;100.00
24746;BME280;12845;52.042;6.838;2023-07-28T10:39:13;-18660.34;;;23.59;100.00
24746;BME280;12845;52.042;6.838;2023-07-28T10:42:00;-18661.44;;;23.63;100.00
24746;BME280;12845;52.042;6.838;2023-07-28T10:44:27;-18658.19;;;23.51;100.00
24746;BME280;12845;52.042;6.838;2023-07-28T10:46:52;-18656.84;;;23.46;100.00
24746;BME280;12845;52.042;6.838;2023-07-28T10:49:18;-18661.44;;;23.63;100.00
24746;BME280;12845;52.042;6.838;2023-07-28T10:51:43;-18660.63;;;23.60;100.00
24746;BME280;12845;52.042;6.838;2023-07-28T10:54:08;-18668.38;;;23.90;100.00
24746;BME280;12845;52.042;6.838;2023-07-28T10:56:34;-18670.94;;;23.99;100.00
24746;BME280;12845;52.042;6.838;2023-07-28T10:59:01;-18674.88;;;24.14;100.00
24746;BME280;12845;52.042;6.838;2023-07-28T11:01:37;-18675.81;;;24.18;100.00
24746;BME280;12845;52.042;6.838;2023-07-28T11:04:18;-18685.84;;;24.56;100.00
24746;BME280;12845;52.042;6.838;2023-07-28T11:06:45;-18689.91;;;24.71;100.00
24746;BME280;12845;52.042;6.838;2023-07-28T11:09:11;-18693.69;;;24.85;100.00
24746;BME280;12845;52.042;6.838;2023-07-28T11:11:38;-18693.84;;;24.86;100.00
24746;BME280;12845;52.042;6.838;2023-07-28T11:14:05;-18689.63;;;24.70;100.00
24746;BME280;12845;52.042;6.838;2023-07-28T11:16:33;-18685.97;;;24.56;100.00
24746;BME280;12845;52.042;6.838;2023-07-28T11:19:02;-18686.94;;;24.60;100.00
24746;BME280;12845;52.042;6.838;2023-07-28T11:21:28;-18687.19;;;24.61;100.00
24746;BME280;12845;52.042;6.838;2023-07-28T11:23:54;-18691.94;;;24.79;100.00
24746;BME280;12845;52.042;6.838;2023-07-28T11:26:20;-18693.97;;;24.86;100.00
24746;BME280;12845;52.042;6.838;2023-07-28T11:28:47;-18696.41;;;24.95;100.00
24746;BME280;12845;52.042;6.838;2023-07-28T11:31:13;-18704.53;;;25.26;100.00
24746;BME280;12845;52.042;6.838;2023-07-28T11:33:39;-18705.06;;;25.28;100.00
24746;BME280;12845;52.042;6.838;2023-07-28T11:36:04;-18707.91;;;25.39;100.00
24746;BME280;12845;52.042;6.838;2023-07-28T11:38:30;-18708.06;;;25.39;100.00
24746;BME280;12845;52.042;6.838;2023-07-28T11:40:57;-18706.44;;;25.33;100.00
24746;BME280;12845;52.042;6.838;2023-07-28T11:43:23;-18710.63;;;25.49;100.00
24746;BME280;12845;52.042;6.838;2023-07-28T11:45:48;-18718.47;;;25.79;100.00
24746;BME280;12845;52.042;6.838;2023-07-28T11:48:14;-18720.91;;;25.88;100.00
24746;BME280;12845;52.042;6.838;2023-07-28T11:50:41;-18720.78;;;25.87;100.00
24746;BME280;12845;52.042;6.838;2023-07-28T11:53:08;-18719.84;;;25.84;100.00
24746;BME280;12845;52.042;6.838;2023-07-28T11:55:38;-18725.38;;;26.05;100.00
24746;BME280;12845;52.042;6.838;2023-07-28T11:58:07;-18724.03;;;26.00;100.00
24746;BME280;12845;52.042;6.838;2023-07-28T12:00:37;-18720.91;;;25.88;100.00
24746;BME280;12845;52.042;6.838;2023-07-28T12:03:07;-18726.59;;;26.09;100.00
24746;BME280;12845;52.042;6.838;2023-07-28T12:05:38;-18736.31;;;26.46;100.00
24746;BME280;12845;52.042;6.838;2023-07-28T12:08:04;-18732.41;;;26.31;100.00
24746;BME280;12845;52.042;6.838;2023-07-28T12:10:30;-18730.50;;;26.24;100.00
24746;BME280;12845;52.042;6.838;2023-07-28T12:12:57;-18739.97;;;26.60;100.00
24746;BME280;12845;52.042;6.838;2023-07-28T12:15:27;-18741.47;;;26.66;100.00
24746;BME280;12845;52.042;6.838;2023-07-28T12:18:22;-18746.06;;;26.83;100.00
24746;BME280;12845;52.042;6.838;2023-07-28T12:21:09;-18745.09;;;26.80;100.00
24746;BME280;12845;52.042;6.838;2023-07-28T12:23:40;-18742.41;;;26.69;100.00
24746;BME280;12845;52.042;6.838;2023-07-28T12:26:06;-18756.19;;;27.21;100.00
24746;BME280;12845;52.042;6.838;2023-07-28T12:28:37;-18763.63;;;27.50;100.00
24746;BME280;12845;52.042;6.838;2023-07-28T12:31:02;-18773.19;;;27.86;100.00
24746;BME280;12845;52.042;6.838;2023-07-28T12:33:33;-18773.47;;;27.87;100.00
24746;BME280;12845;52.042;6.838;2023-07-28T12:36:05;-18764.16;;;27.52;100.00
24746;BME280;12845;52.042;6.838;2023-07-28T12:38:31;-18765.38;;;27.56;100.00
24746;BME280;12845;52.042;6.838;2023-07-28T12:41:02;-18768.88;;;27.70;100.00
24746;BME280;12845;52.042;6.838;2023-07-28T12:43:55;-18763.06;;;27.48;100.00
24746;BME280;12845;52.042;6.838;2023-07-28T12:46:33;-18765.38;;;27.56;100.00